Time;durP1;ratioP1;P1;durP2;ratioP2;P2;SDS_P1;SDS_P2;PMS_P1;PMS_P2;Temp;Humidity;BMP_temperature;BMP_pressure;BME280_temperature;BME280_humidity;BME280_pressure;Samples;Min_cycle;Max_cycle;Signal;HPM_P1;HPM_P2
2021/12/20 00:01:33;;;;;;;7.97;4.67;;;4.20;99.90;;;;;;5050785;28;20017;-68
2021/12/20 00:03:59;;;;;;;8.07;4.27;;;4.20;99.90;;;;;;5055733;28;20442;-67
2021/12/20 00:06:24;;;;;;;7.00;3.77;;;4.20;99.90;;;;;;5050514;28;20872;-68
2021/12/20 00:08:51;;;;;;;9.93;4.47;;;4.10;99.90;;;;;;5054583;28;20025;-68
2021/12/20 00:11:16;;;;;;;9.75;4.78;;;4.10;99.90;;;;;;5050048;28;20054;-68
2021/12/20 00:13:42;;;;;;;7.80;4.43;;;4.10;99.90;;;;;;5053458;28;20387;-68
2021/12/20 00:16:08;;;;;;;6.90;4.20;;;4.10;99.90;;;;;;5056725;28;20434;-68
2021/12/20 00:18:33;;;;;;;10.13;4.40;;;4.00;99.90;;;;;;5052161;28;20020;-67
2021/12/20 00:20:59;;;;;;;9.10;4.40;;;4.00;99.90;;;;;;5055489;28;20504;-67
2021/12/20 00:23:25;;;;;;;8.00;4.43;;;4.00;99.90;;;;;;5051470;28;20470;-68
2021/12/20 00:25:51;;;;;;;7.90;5.00;;;4.00;99.90;;;;;;5055390;28;20020;-68
2021/12/20 00:28:17;;;;;;;9.10;4.60;;;4.10;99.90;;;;;;5051657;28;20024;-68
2021/12/20 00:30:43;;;;;;;;;;;4.00;99.90;;;;;;5056950;28;20032;-67
2021/12/20 00:33:09;;;;;;;8.40;4.22;;;4.00;99.90;;;;;;5055929;28;19915;-67
2021/12/20 00:35:35;;;;;;;6.77;4.20;;;4.10;99.90;;;;;;5052053;28;20040;-67
2021/12/20 00:40:45;;;;;;;6.28;4.13;;;4.10;99.90;;;;;;5054723;28;20105;-68
2021/12/20 00:43:10;;;;;;;8.57;4.17;;;4.20;99.90;;;;;;5055377;28;20107;-67
2021/12/20 00:45:38;;;;;;;8.27;4.53;;;4.20;99.90;;;;;;5049496;28;20020;-67
2021/12/20 00:48:05;;;;;;;6.40;4.13;;;4.20;99.90;;;;;;5055704;28;20016;-68
2021/12/20 00:50:31;;;;;;;7.55;3.78;;;4.20;99.90;;;;;;5051218;28;20117;-68
2021/12/20 00:52:58;;;;;;;6.90;3.83;;;4.20;99.90;;;;;;5055866;28;21520;-68
2021/12/20 00:55:25;;;;;;;6.47;3.65;;;4.20;99.90;;;;;;5051280;28;20528;-68
2021/12/20 00:57:53;;;;;;;6.10;4.07;;;4.20;99.90;;;;;;5054474;28;20032;-68
2021/12/20 01:00:26;;;;;;;5.97;4.05;;;4.20;99.90;;;;;;5051180;28;20039;-68
2021/12/20 01:02:53;;;;;;;7.40;3.80;;;4.20;99.90;;;;;;5055109;28;20066;-67
2021/12/20 01:05:21;;;;;;;5.50;3.70;;;4.20;99.90;;;;;;5049948;28;20090;-68
2021/12/20 01:07:47;;;;;;;8.15;4.05;;;4.20;99.90;;;;;;5054557;28;20385;-67
2021/12/20 01:10:13;;;;;;;6.68;4.22;;;4.20;99.90;;;;;;5055671;28;20024;-67
2021/12/20 01:12:48;;;;;;;6.80;4.37;;;4.10;99.90;;;;;;5051197;28;20033;-67
2021/12/20 01:15:28;;;;;;;7.60;4.25;;;4.00;99.90;;;;;;5053348;28;20267;-68
2021/12/20 01:17:54;;;;;;;8.88;4.95;;;4.00;99.90;;;;;;5055134;28;20042;-67
2021/12/20 01:20:20;;;;;;;6.90;4.60;;;3.90;99.90;;;;;;5051492;28;20470;-68
2021/12/20 01:22:47;;;;;;;8.68;4.47;;;3.80;99.90;;;;;;5054941;28;20027;-68
2021/12/20 01:25:14;;;;;;;8.45;4.28;;;3.60;99.90;;;;;;5055239;28;20070;-67
2021/12/20 01:27:40;;;;;;;;;;;3.50;99.90;;;;;;5051929;28;20032;-67
2021/12/20 01:30:08;;;;;;;6.95;4.43;;;3.40;99.90;;;;;;5056612;28;19911;-67
2021/12/20 01:32:33;;;;;;;6.78;4.57;;;3.40;99.90;;;;;;5050798;28;20024;-68
2021/12/20 01:34:59;;;;;;;7.23;4.77;;;3.40;99.90;;;;;;5053463;28;20053;-67
2021/12/20 01:37:25;;;;;;;8.77;4.83;;;3.30;99.90;;;;;;5050649;28;20052;-67
2021/12/20 01:39:52;;;;;;;5.33;3.20;;;3.30;99.90;;;;;;5054508;28;20017;-67
2021/12/20 01:42:20;;;;;;;3.67;2.80;;;3.30;99.90;;;;;;5050285;28;20055;-67
2021/12/20 01:44:48;;;;;;;5.53;2.10;;;3.10;99.90;;;;;;5053609;28;20445;-68
2021/12/20 01:47:15;;;;;;;2.38;1.38;;;3.00;99.90;;;;;;5054625;28;20077;-68
2021/12/20 01:49:57;;;;;;;2.72;1.77;;;3.00;99.90;;;;;;5053512;28;20024;-67
2021/12/20 01:52:24;;;;;;;1.30;1.20;;;3.00;99.90;;;;;;5046786;28;20389;-67
2021/12/20 01:54:50;;;;;;;1.15;0.77;;;2.90;99.90;;;;;;5050786;28;20020;-68
2021/12/20 01:57:16;;;;;;;2.23;0.93;;;2.90;99.90;;;;;;5050529;28;20044;-68
2021/12/20 01:59:42;;;;;;;1.07;0.90;;;2.80;99.90;;;;;;5053500;28;20016;-68
2021/12/20 02:02:08;;;;;;;0.70;0.70;;;2.80;99.90;;;;;;5052840;28;20032;-68
2021/12/20 02:04:44;;;;;;;0.98;0.88;;;2.80;99.90;;;;;;5044958;28;20031;-68
2021/12/20 02:07:20;;;;;;;0.80;0.70;;;2.80;99.90;;;;;;5052524;28;20020;-67
2021/12/20 02:09:45;;;;;;;1.50;0.60;;;2.80;99.90;;;;;;5052727;28;20382;-68
2021/12/20 02:12:12;;;;;;;0.47;0.47;;;2.90;99.90;;;;;;5053828;28;20142;-67
2021/12/20 02:14:40;;;;;;;1.02;0.55;;;2.90;99.90;;;;;;5049136;28;20055;-67
2021/12/20 02:17:06;;;;;;;0.65;0.57;;;2.90;99.90;;;;;;5054158;28;20029;-67
2021/12/20 02:19:31;;;;;;;1.07;0.73;;;2.90;99.90;;;;;;5052340;28;20023;-67
2021/12/20 02:21:57;;;;;;;1.50;0.90;;;2.90;99.90;;;;;;5058684;28;20090;-67
2021/12/20 02:24:23;;;;;;;0.87;0.70;;;2.90;99.90;;;;;;5052225;28;20365;-68
2021/12/20 02:26:49;;;;;;;0.77;0.77;;;2.90;99.90;;;;;;5058498;28;20021;-67
2021/12/20 02:29:16;;;;;;;0.45;0.45;;;2.90;99.90;;;;;;5056642;28;20025;-68
2021/12/20 02:39:42;;;;;;;1.33;1.05;;;3.10;99.90;;;;;;5057852;28;20569;-67
2021/12/20 02:42:11;;;;;;;2.42;1.25;;;3.10;99.90;;;;;;5057405;28;20016;-68
2021/12/20 02:44:37;;;;;;;2.13;1.20;;;3.10;99.90;;;;;;5052753;28;20412;-67
2021/12/20 02:47:06;;;;;;;1.27;1.00;;;3.10;99.90;;;;;;5058155;28;20008;-68
2021/12/20 02:49:33;;;;;;;1.33;1.20;;;3.10;99.90;;;;;;5053177;28;20477;-68
2021/12/20 02:52:06;;;;;;;;;;;3.20;99.90;;;;;;5057943;28;20113;-67
2021/12/20 02:54:32;;;;;;;1.80;1.60;;;3.20;99.90;;;;;;5053017;28;20369;-68
2021/12/20 02:56:58;;;;;;;2.08;1.48;;;3.20;99.90;;;;;;5057266;28;20631;-68
2021/12/20 02:59:24;;;;;;;2.63;1.85;;;3.10;99.90;;;;;;5054326;28;20021;-68
2021/12/20 03:01:57;;;;;;;1.97;1.70;;;3.10;99.90;;;;;;5056982;28;20032;-67
2021/12/20 03:04:24;;;;;;;3.30;1.98;;;3.10;99.90;;;;;;5051766;28;20029;-68
2021/12/20 03:06:58;;;;;;;2.85;1.85;;;3.10;99.90;;;;;;5056716;28;20020;-67
2021/12/20 03:09:31;;;;;;;3.55;1.73;;;3.10;99.90;;;;;;5054105;28;20108;-67
2021/12/20 03:11:59;;;;;;;2.28;1.83;;;3.10;99.90;;;;;;5058089;28;21429;-67
2021/12/20 03:14:36;;;;;;;3.03;1.90;;;3.10;99.90;;;;;;5051458;28;20044;-68
2021/12/20 03:17:02;;;;;;;;;;;3.10;99.90;;;;;;5057760;28;20041;-67
2021/12/20 03:19:29;;;;;;;3.00;1.67;;;3.10;99.90;;;;;;5055218;28;19947;-68
2021/12/20 03:21:56;;;;;;;1.60;1.50;;;3.10;99.90;;;;;;5059572;28;20864;-68
2021/12/20 03:24:22;;;;;;;1.55;1.30;;;3.10;99.90;;;;;;5056491;28;20112;-68
2021/12/20 03:26:48;;;;;;;2.05;1.95;;;3.20;99.90;;;;;;5058085;28;20016;-68
2021/12/20 03:29:14;;;;;;;4.77;1.73;;;3.20;99.90;;;;;;5056369;28;20023;-67
2021/12/20 03:31:40;;;;;;;2.93;1.37;;;3.20;99.90;;;;;;5054380;28;20032;-68
2021/12/20 03:34:06;;;;;;;2.63;1.70;;;3.10;99.90;;;;;;5056577;28;20128;-68
2021/12/20 03:36:33;;;;;;;1.60;1.50;;;3.20;99.90;;;;;;5051152;28;20849;-67
2021/12/20 03:38:59;;;;;;;;;;;3.20;99.90;;;;;;5057689;28;20496;-68
2021/12/20 03:41:25;;;;;;;2.33;1.58;;;3.30;99.90;;;;;;5052710;28;19909;-67
2021/12/20 03:43:51;;;;;;;1.73;1.40;;;3.20;99.90;;;;;;5055928;28;20096;-67
2021/12/20 03:46:17;;;;;;;1.60;1.50;;;3.30;99.90;;;;;;5056463;28;20021;-67
2021/12/20 03:48:42;;;;;;;2.17;1.20;;;3.30;99.90;;;;;;5052776;28;20705;-67
2021/12/20 03:51:08;;;;;;;3.60;1.40;;;3.30;99.90;;;;;;5057165;28;20021;-68
2021/12/20 03:53:35;;;;;;;1.90;1.37;;;3.40;99.90;;;;;;5052792;28;20024;-68
2021/12/20 03:56:03;;;;;;;2.65;1.33;;;3.40;99.90;;;;;;5056502;28;20020;-67
2021/12/20 03:58:29;;;;;;;3.00;1.40;;;3.40;99.90;;;;;;5052053;28;20032;-68
2021/12/20 04:00:57;;;;;;;2.17;1.97;;;3.40;99.90;;;;;;5056232;28;20013;-68
2021/12/20 04:03:24;;;;;;;1.40;1.30;;;3.40;99.90;;;;;;5052658;28;20270;-68
2021/12/20 04:05:50;;;;;;;1.60;1.50;;;3.40;99.90;;;;;;5054467;28;20123;-68
2021/12/20 04:08:16;;;;;;;1.63;1.48;;;3.40;99.90;;;;;;5056205;28;20111;-68
2021/12/20 04:10:42;;;;;;;2.40;1.63;;;3.40;99.90;;;;;;5052327;28;20899;-68
2021/12/20 04:13:09;;;;;;;2.37;1.80;;;3.40;99.90;;;;;;5056996;28;20024;-67
2021/12/20 04:15:36;;;;;;;1.92;1.73;;;3.40;99.90;;;;;;5052323;28;20013;-67
2021/12/20 04:18:01;;;;;;;2.42;1.98;;;3.40;99.90;;;;;;5056032;28;20347;-67
2021/12/20 04:20:27;;;;;;;1.80;1.70;;;3.30;99.90;;;;;;5051658;28;20040;-67
2021/12/20 04:22:52;;;;;;;2.30;1.87;;;3.40;99.90;;;;;;5056243;28;20162;-68
2021/12/20 04:25:18;;;;;;;2.93;1.83;;;3.30;99.90;;;;;;5055752;28;20730;-67
2021/12/20 04:27:44;;;;;;;2.03;1.70;;;3.30;99.90;;;;;;5052540;28;20851;-68
2021/12/20 04:30:11;;;;;;;2.83;1.50;;;3.30;99.90;;;;;;5055410;28;20029;-68
2021/12/20 04:32:43;;;;;;;5.22;2.13;;;3.40;99.90;;;;;;5050138;28;20624;-68
2021/12/20 04:35:10;;;;;;;3.13;1.83;;;3.40;99.90;;;;;;5054324;28;20017;-67
2021/12/20 04:37:36;;;;;;;2.58;1.75;;;3.30;99.90;;;;;;5051751;28;20402;-67
2021/12/20 04:40:07;;;;;;;1.92;1.42;;;3.30;99.90;;;;;;5055762;28;20016;-67
2021/12/20 04:42:33;;;;;;;1.98;1.77;;;3.30;99.90;;;;;;5051184;28;20612;-68
2021/12/20 04:44:58;;;;;;;2.00;1.80;;;3.30;99.90;;;;;;5055784;28;20024;-68
2021/12/20 04:47:24;;;;;;;1.80;1.60;;;3.20;99.90;;;;;;5053283;28;20115;-67
2021/12/20 04:49:50;;;;;;;6.03;1.77;;;3.20;99.90;;;;;;5053788;28;20128;-68
2021/12/20 04:52:16;;;;;;;2.97;1.83;;;3.10;99.90;;;;;;5054296;28;20083;-67
2021/12/20 04:54:41;;;;;;;1.97;1.60;;;3.10;99.90;;;;;;5051081;28;20478;-68
2021/12/20 04:57:07;;;;;;;4.13;1.87;;;3.10;99.90;;;;;;5054399;28;20291;-68
2021/12/20 04:59:33;;;;;;;7.03;2.13;;;3.00;99.90;;;;;;5049788;28;20078;-67
2021/12/20 05:01:59;;;;;;;2.07;1.60;;;2.90;99.90;;;;;;5053577;28;20307;-67
2021/12/20 05:04:25;;;;;;;2.07;1.70;;;3.00;99.90;;;;;;5053694;28;20502;-68
2021/12/20 05:06:50;;;;;;;2.50;1.63;;;2.90;99.90;;;;;;5050260;28;20026;-67
2021/12/20 05:09:18;;;;;;;3.13;1.50;;;2.90;99.90;;;;;;5053653;28;20021;-67
2021/12/20 05:11:50;;;;;;;3.30;1.88;;;2.90;99.90;;;;;;5049494;28;20024;-67
2021/12/20 05:14:17;;;;;;;3.75;1.67;;;2.90;99.90;;;;;;5051313;28;20591;-68
2021/12/20 05:16:43;;;;;;;1.73;1.30;;;2.90;99.90;;;;;;5048737;28;20029;-68
2021/12/20 05:19:09;;;;;;;2.77;1.57;;;2.90;99.90;;;;;;5054459;28;20025;-68
2021/12/20 05:21:34;;;;;;;4.40;1.53;;;2.90;99.90;;;;;;5049673;28;20017;-68
2021/12/20 05:24:00;;;;;;;3.33;1.60;;;2.90;99.90;;;;;;5051940;28;20020;-68
2021/12/20 05:26:27;;;;;;;2.23;1.43;;;2.90;99.90;;;;;;5050194;28;20298;-68
2021/12/20 05:28:55;;;;;;;3.00;1.92;;;2.80;99.90;;;;;;5054422;28;20043;-68
2021/12/20 05:31:21;;;;;;;2.15;1.60;;;2.80;99.90;;;;;;5054526;28;20618;-67
2021/12/20 05:33:47;;;;;;;3.65;1.55;;;2.80;99.90;;;;;;5051200;28;20037;-68
2021/12/20 05:36:12;;;;;;;4.10;1.73;;;2.80;99.90;;;;;;5055390;28;20524;-68
2021/12/20 05:38:38;;;;;;;3.87;1.40;;;2.80;99.90;;;;;;5050306;28;20036;-68
2021/12/20 05:41:04;;;;;;;4.70;1.67;;;2.80;99.90;;;;;;5054879;28;20120;-68
2021/12/20 05:43:30;;;;;;;4.57;1.50;;;2.70;99.90;;;;;;5050707;28;20023;-69
2021/12/20 05:45:57;;;;;;;2.83;1.42;;;2.70;99.90;;;;;;5053911;28;20028;-68
2021/12/20 05:48:23;;;;;;;3.53;1.33;;;2.70;99.90;;;;;;5054571;28;20077;-69
2021/12/20 05:50:49;;;;;;;2.67;1.40;;;2.60;99.90;;;;;;5051416;28;20156;-68
2021/12/20 05:53:15;;;;;;;8.90;4.30;;;2.60;99.90;;;;;;5053476;28;20025;-68
2021/12/20 05:55:40;;;;;;;2.47;1.30;;;2.60;99.90;;;;;;5049911;28;20040;-68
2021/12/20 05:58:06;;;;;;;4.20;1.27;;;2.60;99.90;;;;;;5054189;28;20036;-68
2021/12/20 06:00:32;;;;;;;4.87;1.83;;;2.60;99.90;;;;;;5049732;28;20104;-69
2021/12/20 06:03:33;;;;;;;4.07;1.60;;;2.60;99.90;;;;;;5097191;27;21040;-68
2021/12/20 06:05:59;;;;;;;3.95;1.63;;;2.50;99.90;;;;;;5092240;28;20058;-68
2021/12/20 06:08:25;;;;;;;3.83;1.90;;;2.50;99.90;;;;;;5084426;28;20031;-68
2021/12/20 06:10:51;;;;;;;3.97;1.20;;;2.50;99.90;;;;;;5081543;28;20350;-68
2021/12/20 06:13:16;;;;;;;5.27;1.50;;;2.50;99.90;;;;;;5085822;28;20023;-69
2021/12/20 06:15:42;;;;;;;3.67;1.77;;;2.50;99.90;;;;;;5087671;28;20023;-68
2021/12/20 06:18:08;;;;;;;3.67;1.57;;;2.40;99.90;;;;;;5081744;28;20020;-68
2021/12/20 06:20:34;;;;;;;4.13;1.60;;;2.50;99.90;;;;;;5079305;28;20043;-68
2021/12/20 06:22:59;;;;;;;6.87;1.60;;;2.70;99.90;;;;;;5081073;28;20072;-67
2021/12/20 06:25:26;;;;;;;3.77;1.30;;;3.00;99.90;;;;;;5084639;28;20077;-69
2021/12/20 06:27:53;;;;;;;4.85;1.25;;;3.20;99.90;;;;;;5082336;28;20062;-67
2021/12/20 06:30:20;;;;;;;4.72;3.10;;;3.40;99.90;;;;;;5077743;28;20034;-67
2021/12/20 06:32:46;;;;;;;4.25;1.48;;;3.50;99.90;;;;;;5082832;28;20043;-68
2021/12/20 06:35:13;;;;;;;2.35;1.27;;;3.50;99.90;;;;;;5070975;28;20424;-68
2021/12/20 06:37:48;;;;;;;3.17;1.40;;;3.40;99.90;;;;;;5078438;28;20028;-67
2021/12/20 06:40:14;;;;;;;6.65;1.80;;;3.20;99.90;;;;;;5079023;28;20392;-68
2021/12/20 06:42:40;;;;;;;4.57;1.50;;;3.00;99.90;;;;;;5083329;28;20060;-68
2021/12/20 06:45:07;;;;;;;1.57;1.00;;;2.80;99.90;;;;;;5074684;28;20119;-68
2021/12/20 06:47:36;;;;;;;4.43;1.52;;;2.70;99.90;;;;;;5075151;28;20489;-68
2021/12/20 06:50:03;;;;;;;2.25;1.27;;;2.80;99.90;;;;;;5080101;28;20016;-68
2021/12/20 06:52:29;;;;;;;3.72;1.60;;;2.80;99.90;;;;;;5077295;28;20042;-68
2021/12/20 06:54:54;;;;;;;3.97;1.43;;;2.90;99.90;;;;;;5083227;28;20016;-68
2021/12/20 06:57:20;;;;;;;2.17;1.47;;;3.00;99.90;;;;;;5075735;28;20576;-68
2021/12/20 06:59:47;;;;;;;3.50;1.47;;;3.10;99.90;;;;;;5079993;28;20020;-68
2021/12/20 07:02:12;;;;;;;4.05;1.38;;;3.40;99.90;;;;;;5076798;28;20021;-68
2021/12/20 07:04:38;;;;;;;4.23;1.33;;;3.80;99.90;;;;;;5080798;28;20140;-68
2021/12/20 07:07:04;;;;;;;1.33;1.20;;;4.20;99.90;;;;;;5077644;28;20039;-68
2021/12/20 07:09:30;;;;;;;2.57;1.10;;;4.90;99.90;;;;;;5072696;28;20215;-68
2021/12/20 07:11:55;;;;;;;3.87;1.30;;;5.60;99.50;;;;;;5084402;28;20039;-68
2021/12/20 07:14:26;;;;;;;1.63;1.20;;;6.10;95.50;;;;;;5064582;28;20115;-68
2021/12/20 07:16:52;;;;;;;2.50;1.40;;;6.50;94.70;;;;;;5067191;28;20085;-68
2021/12/20 07:19:17;;;;;;;7.10;1.60;;;6.90;92.30;;;;;;5061909;28;20545;-68
2021/12/20 07:21:43;;;;;;;2.43;1.67;;;7.00;91.90;;;;;;5062986;28;20069;-68
2021/12/20 07:24:09;;;;;;;3.07;1.30;;;7.10;91.20;;;;;;5060840;28;20031;-68
2021/12/20 07:26:35;;;;;;;6.23;1.40;;;7.30;89.20;;;;;;5064760;28;20027;-68
2021/12/20 07:29:01;;;;;;;3.17;1.40;;;7.40;88.30;;;;;;5068146;28;20051;-68
2021/12/20 07:31:27;;;;;;;2.87;1.40;;;7.50;87.20;;;;;;5059817;28;20349;-68
2021/12/20 07:33:52;;;;;;;1.65;1.20;;;7.40;86.60;;;;;;5063897;28;20420;-68
2021/12/20 07:36:21;;;;;;;3.77;1.67;;;7.10;89.20;;;;;;5064341;28;20033;-68
2021/12/20 07:38:47;;;;;;;3.97;1.50;;;7.00;89.90;;;;;;5068733;28;20016;-68
2021/12/20 07:41:13;;;;;;;2.10;1.30;;;7.00;90.20;;;;;;5060855;28;20526;-68
2021/12/20 07:43:39;;;;;;;4.55;1.52;;;6.80;89.20;;;;;;5063923;28;20040;-68
2021/12/20 07:46:05;;;;;;;2.90;1.70;;;6.60;90.60;;;;;;5064503;28;20024;-68
2021/12/20 07:48:30;;;;;;;6.87;1.77;;;6.50;90.70;;;;;;5062800;28;20024;-68
2021/12/20 07:50:57;;;;;;;2.57;1.50;;;6.30;91.00;;;;;;5071096;28;20052;-68
2021/12/20 07:53:23;;;;;;;1.42;1.20;;;6.20;91.00;;;;;;5064981;28;20596;-68
2021/12/20 07:55:49;;;;;;;4.20;1.30;;;6.20;91.10;;;;;;5061947;28;20040;-68
2021/12/20 07:58:15;;;;;;;3.90;1.70;;;6.10;91.20;;;;;;5060325;28;20017;-69
2021/12/20 08:00:41;;;;;;;4.43;1.53;;;5.90;92.00;;;;;;5058940;28;20044;-68
2021/12/20 08:03:06;;;;;;;3.27;1.90;;;5.80;92.10;;;;;;5070615;28;20473;-68
2021/12/20 08:05:32;;;;;;;2.93;1.17;;;5.70;92.50;;;;;;5063021;28;20008;-68
2021/12/20 08:07:58;;;;;;;2.63;1.90;;;5.60;92.80;;;;;;5068993;28;20031;-68
2021/12/20 08:10:27;;;;;;;5.37;1.73;;;5.50;93.20;;;;;;5063082;28;20024;-68
2021/12/20 08:12:53;;;;;;;3.70;2.67;;;5.60;92.90;;;;;;5067240;28;20020;-68
2021/12/20 08:15:21;;;;;;;3.17;1.38;;;5.90;92.30;;;;;;5066518;28;20028;-69
2021/12/20 08:17:48;;;;;;;5.45;1.50;;;6.40;90.80;;;;;;5062230;28;20024;-69
2021/12/20 08:20:14;;;;;;;3.88;1.63;;;6.70;89.10;;;;;;5060665;28;20103;-69
2021/12/20 08:22:40;;;;;;;4.97;1.57;;;7.20;87.80;;;;;;5058392;28;20099;-68
2021/12/20 08:25:07;;;;;;;2.03;1.13;;;7.70;84.70;;;;;;5062727;28;20454;-68
2021/12/20 08:27:33;;;;;;;4.00;1.50;;;8.30;80.60;;;;;;5060326;28;20526;-68
2021/12/20 08:29:59;;;;;;;2.93;1.40;;;8.90;77.60;;;;;;5062681;28;20100;-68
2021/12/20 08:32:25;;;;;;;6.07;1.63;;;10.00;73.60;;;;;;5058015;28;20496;-68
2021/12/20 08:34:52;;;;;;;4.28;1.33;;;11.20;66.40;;;;;;5064006;28;20100;-68
2021/12/20 08:37:18;;;;;;;3.08;1.35;;;12.20;61.00;;;;;;5059383;28;20032;-69
2021/12/20 08:39:43;;;;;;;1.80;1.50;;;13.20;56.70;;;;;;5066997;28;20027;-69
2021/12/20 08:42:09;;;;;;;2.60;1.40;;;13.80;52.50;;;;;;5064713;28;20483;-69
2021/12/20 08:44:35;;;;;;;4.47;1.80;;;13.90;51.90;;;;;;5066795;28;20051;-69
2021/12/20 08:47:01;;;;;;;4.03;1.50;;;14.30;51.30;;;;;;5060615;28;20254;-68
2021/12/20 08:49:27;;;;;;;3.65;1.25;;;14.50;50.00;;;;;;5057795;28;20024;-69
2021/12/20 08:51:55;;;;;;;2.08;1.40;;;14.20;50.30;;;;;;5061940;28;20078;-69
2021/12/20 08:54:23;;;;;;;3.25;1.52;;;13.70;51.40;;;;;;5058796;28;20107;-69
2021/12/20 08:56:49;;;;;;;4.60;1.50;;;13.30;51.40;;;;;;5066132;28;20031;-69
2021/12/20 08:59:14;;;;;;;4.38;2.78;;;12.90;53.00;;;;;;5059657;28;20232;-69
2021/12/20 09:01:40;;;;;;;2.67;1.63;;;12.70;53.80;;;;;;5063623;28;20097;-69
2021/12/20 09:04:07;;;;;;;2.70;1.50;;;12.50;55.00;;;;;;5063183;28;20016;-69
2021/12/20 09:06:38;;;;;;;3.58;1.50;;;12.60;55.40;;;;;;5062915;28;20017;-69
2021/12/20 09:09:04;;;;;;;1.85;1.20;;;12.60;54.00;;;;;;5066817;28;20099;-69
2021/12/20 09:11:30;;;;;;;2.83;1.48;;;12.60;53.80;;;;;;5060915;28;20107;-68
2021/12/20 09:13:56;;;;;;;3.78;1.52;;;12.70;52.40;;;;;;5062541;28;20041;-69
2021/12/20 09:16:21;;;;;;;3.95;1.98;;;12.70;52.80;;;;;;5063335;28;20028;-69
2021/12/20 09:18:48;;;;;;;2.03;1.70;;;13.00;51.80;;;;;;5067031;28;20108;-69
2021/12/20 09:21:15;;;;;;;;;;;12.50;52.20;;;;;;5065108;28;20044;-69
2021/12/20 09:23:41;;;;;;;3.28;1.67;;;12.70;52.60;;;;;;5068562;28;19912;-69
2021/12/20 09:26:07;;;;;;;2.35;1.30;;;13.00;51.70;;;;;;5070540;28;20024;-69
2021/12/20 09:28:34;;;;;;;1.52;1.30;;;13.20;50.20;;;;;;5062673;28;20489;-69
2021/12/20 09:31:00;;;;;;;3.80;1.30;;;13.00;50.50;;;;;;5064975;28;20125;-69
2021/12/20 09:33:26;;;;;;;1.85;1.00;;;13.20;50.50;;;;;;5063183;28;22013;-69
2021/12/20 09:35:53;;;;;;;2.63;1.50;;;13.50;50.20;;;;;;5065622;28;20021;-70
2021/12/20 09:38:20;;;;;;;4.65;1.40;;;13.80;48.80;;;;;;5064262;28;20032;-69
2021/12/20 09:43:42;;;;;;;3.35;1.33;;;14.80;46.70;;;;;;5042851;28;20683;-69
2021/12/20 09:47:23;;;;;;;3.88;1.48;;;14.90;44.80;;;;;;5048827;28;20440;-69
2021/12/20 09:49:51;;;;;;;2.92;1.45;;;14.80;45.60;;;;;;5047624;28;20056;-69
2021/12/20 09:52:17;;;;;;;4.13;1.35;;;14.50;46.10;;;;;;5054241;28;20560;-69
2021/12/20 09:54:43;;;;;;;2.95;1.40;;;14.60;46.10;;;;;;5053734;28;20624;-69
2021/12/20 09:57:11;;;;;;;2.17;1.50;;;14.40;45.60;;;;;;5051833;28;20086;-69
2021/12/20 09:59:38;;;;;;;2.20;1.35;;;14.40;45.30;;;;;;5046835;28;20272;-69
2021/12/20 10:02:07;;;;;;;4.18;1.55;;;14.50;45.40;;;;;;5038222;28;20028;-69
2021/12/20 10:04:34;;;;;;;2.53;1.20;;;14.40;44.80;;;;;;5050074;28;20018;-69
2021/12/20 10:07:01;;;;;;;4.07;1.48;;;14.40;46.00;;;;;;5046287;28;20551;-69
2021/12/20 10:09:32;;;;;;;3.15;1.30;;;14.50;44.10;;;;;;5036533;28;20454;-69
2021/12/20 10:12:18;;;;;;;3.00;0.80;;;14.10;44.50;;;;;;5022492;28;20594;-69
2021/12/20 10:15:10;;;;;;;2.67;1.13;;;14.00;44.70;;;;;;5023718;28;20024;-69
2021/12/20 10:17:58;;;;;;;2.72;0.98;;;14.00;44.30;;;;;;5021390;28;20025;-69
2021/12/20 10:20:26;;;;;;;3.50;1.10;;;13.80;44.30;;;;;;5023190;28;20025;-69
2021/12/20 10:22:53;;;;;;;3.95;1.45;;;13.60;44.20;;;;;;5026060;28;20028;-69
2021/12/20 10:25:24;;;;;;;2.10;1.25;;;13.50;44.90;;;;;;5036167;28;20397;-69
2021/12/20 10:27:51;;;;;;;3.25;1.10;;;13.40;44.70;;;;;;5024840;28;20029;-69
2021/12/20 10:30:29;;;;;;;2.45;0.93;;;13.20;45.10;;;;;;5027721;28;20022;-69
2021/12/20 10:32:56;;;;;;;2.45;0.95;;;13.00;45.40;;;;;;5031220;28;20426;-68
2021/12/20 10:35:32;;;;;;;2.60;1.10;;;12.10;45.70;;;;;;5026751;28;20036;-69
2021/12/20 10:38:21;;;;;;;1.70;1.17;;;10.90;48.20;;;;;;5035114;28;20432;-68
2021/12/20 10:40:57;;;;;;;2.60;1.05;;;9.80;51.80;;;;;;5027829;28;20075;-68
2021/12/20 10:43:35;;;;;;;1.33;0.88;;;8.80;55.60;;;;;;5034180;28;20029;-68
2021/12/20 10:46:13;;;;;;;2.42;1.10;;;8.10;59.80;;;;;;5026481;28;20026;-68
2021/12/20 10:48:39;;;;;;;1.58;1.33;;;7.50;63.30;;;;;;5018162;28;20505;-68
2021/12/20 10:51:15;;;;;;;2.57;1.40;;;6.90;68.00;;;;;;5026337;28;20030;-67
2021/12/20 10:53:46;;;;;;;3.08;1.30;;;6.40;71.80;;;;;;5030900;28;20061;-67
2021/12/20 10:56:12;;;;;;;3.75;1.05;;;6.00;76.40;;;;;;5026141;28;20080;-67
2021/12/20 10:58:38;;;;;;;4.00;1.57;;;5.70;77.50;;;;;;5010273;28;20019;-67
2021/12/20 11:04:24;;;;;;;1.65;0.80;;;5.60;79.20;;;;;;5012302;28;20073;-67
2021/12/20 11:09:33;;;;;;;1.45;0.88;;;5.50;79.90;;;;;;5017407;28;20075;-68
2021/12/20 11:12:05;;;;;;;2.05;1.17;;;5.40;80.70;;;;;;5013522;28;20026;-67
2021/12/20 11:14:47;;;;;;;1.15;0.80;;;5.40;81.10;;;;;;5009346;28;20069;-67
2021/12/20 11:17:17;;;;;;;2.50;1.00;;;5.40;80.80;;;;;;5017138;28;20045;-67
2021/12/20 11:19:48;;;;;;;1.58;1.20;;;5.40;80.70;;;;;;5007139;28;20076;-67
2021/12/20 11:22:19;;;;;;;2.00;1.13;;;5.30;81.90;;;;;;5014144;28;20033;-67
2021/12/20 11:24:49;;;;;;;2.33;1.83;;;5.20;82.60;;;;;;5009809;28;20101;-68
2021/12/20 11:27:53;;;;;;;1.63;1.25;;;5.30;82.60;;;;;;5013882;28;20026;-67
2021/12/20 11:30:22;;;;;;;3.08;1.00;;;5.40;82.30;;;;;;5007743;28;20092;-67
2021/12/20 11:32:49;;;;;;;2.63;1.50;;;5.40;83.00;;;;;;5011425;28;20025;-67
2021/12/20 11:35:17;;;;;;;1.98;0.80;;;5.30;82.90;;;;;;5011203;28;20026;-67
2021/12/20 11:37:43;;;;;;;1.40;0.93;;;5.40;82.10;;;;;;5011908;28;20496;-67
2021/12/20 11:40:11;;;;;;;3.07;1.10;;;5.50;80.60;;;;;;5008972;28;20026;-67
2021/12/20 11:42:37;;;;;;;3.45;1.08;;;5.40;80.90;;;;;;5008035;28;20060;-68
2021/12/20 11:45:06;;;;;;;5.03;1.20;;;5.30;81.90;;;;;;5014771;28;20049;-68
2021/12/20 11:47:54;;;;;;;3.40;1.27;;;5.10;82.10;;;;;;5008567;28;20054;-68
2021/12/20 11:50:22;;;;;;;2.65;1.05;;;5.00;82.60;;;;;;5006280;28;20033;-68
2021/12/20 11:52:49;;;;;;;4.25;1.30;;;4.90;83.50;;;;;;5019472;28;20029;-68
2021/12/20 11:55:27;;;;;;;1.80;1.17;;;4.90;83.90;;;;;;5013767;28;20038;-67
2021/12/20 11:57:56;;;;;;;3.70;1.30;;;4.80;83.80;;;;;;5009163;28;20018;-68
2021/12/20 12:00:28;;;;;;;3.95;1.02;;;4.80;84.30;;;;;;5008019;28;20049;-67
2021/12/20 12:02:58;;;;;;;3.58;1.27;;;4.80;84.30;;;;;;5008046;28;20490;-68
2021/12/20 12:05:32;;;;;;;3.15;1.10;;;4.90;84.00;;;;;;5006003;28;20034;-68
2021/12/20 12:08:28;;;;;;;1.00;1.00;;;4.80;83.50;;;;;;5012356;28;20032;-68
2021/12/20 12:11:04;;;;;;;1.90;1.30;;;4.70;84.20;;;;;;5006854;28;20569;-68
2021/12/20 12:13:59;;;;;;;3.83;1.10;;;4.70;84.80;;;;;;5008253;28;20137;-68
2021/12/20 12:17:02;;;;;;;1.65;0.82;;;4.70;85.80;;;;;;5006864;28;20021;-68
2021/12/20 12:19:49;;;;;;;2.92;0.95;;;4.70;85.40;;;;;;5008548;28;20048;-68
2021/12/20 12:22:40;;;;;;;1.27;1.00;;;4.60;85.40;;;;;;5007425;28;20026;-68
2021/12/20 12:25:09;;;;;;;2.28;1.00;;;4.60;85.80;;;;;;5007399;28;20041;-68
2021/12/20 12:27:37;;;;;;;2.78;1.00;;;4.60;84.40;;;;;;5003783;28;20021;-68
2021/12/20 12:30:12;;;;;;;4.55;1.02;;;4.60;84.10;;;;;;5007327;28;20028;-68
2021/12/20 12:32:44;;;;;;;1.33;1.00;;;4.50;84.20;;;;;;5005795;28;20026;-68
2021/12/20 12:35:57;;;;;;;0.95;0.70;;;4.50;84.30;;;;;;5006863;28;20026;-67
2021/12/20 12:38:30;;;;;;;3.65;0.93;;;4.40;83.20;;;;;;5006865;28;20058;-68
2021/12/20 12:41:05;;;;;;;1.33;0.95;;;4.40;83.70;;;;;;5006126;28;20620;-68
2021/12/20 12:43:53;;;;;;;3.63;1.20;;;4.30;83.90;;;;;;5008018;28;20486;-68
2021/12/20 12:46:40;;;;;;;1.67;0.70;;;4.30;84.40;;;;;;5005500;28;20049;-68
2021/12/20 12:49:21;;;;;;;1.27;0.85;;;4.30;85.10;;;;;;5004442;28;20101;-67
2021/12/20 12:52:00;;;;;;;1.98;1.30;;;4.20;85.30;;;;;;5006002;28;20026;-68
2021/12/20 12:54:41;;;;;;;2.47;1.17;;;4.20;85.10;;;;;;5011049;28;20915;-68
2021/12/20 12:57:12;;;;;;;3.97;1.25;;;4.20;85.90;;;;;;5007598;28;20026;-68
2021/12/20 12:59:50;;;;;;;1.90;1.10;;;4.30;85.50;;;;;;5003797;28;20022;-68
2021/12/20 13:02:31;;;;;;;2.97;0.85;;;4.20;85.60;;;;;;5005128;28;20080;-68
2021/12/20 13:05:05;;;;;;;2.78;1.40;;;4.30;87.10;;;;;;5010624;28;20026;-67
2021/12/20 13:07:34;;;;;;;3.60;1.10;;;4.40;85.50;;;;;;5007793;28;20113;-68
2021/12/20 13:10:10;;;;;;;3.53;1.30;;;4.30;86.30;;;;;;5005581;28;20064;-68
2021/12/20 13:17:55;;;;;;;1.48;0.98;;;4.30;86.30;;;;;;5007272;28;20037;-67
2021/12/20 13:20:35;;;;;;;1.10;1.00;;;4.30;86.30;;;;;;5007298;28;20060;-67
2021/12/20 13:23:09;;;;;;;4.00;1.35;;;4.30;86.40;;;;;;5006325;28;20130;-67
2021/12/20 13:25:43;;;;;;;4.57;1.40;;;4.20;86.60;;;;;;5002408;28;20029;-67
2021/12/20 13:28:11;;;;;;;3.28;1.25;;;4.10;86.90;;;;;;5003822;28;20037;-67
2021/12/20 13:30:43;;;;;;;3.97;1.00;;;4.00;87.50;;;;;;5007817;28;20030;-68
2021/12/20 13:33:09;;;;;;;1.50;1.20;;;4.00;87.10;;;;;;5003813;28;20391;-67